sensor_id;sensor_type;location;lat;lon;timestamp;temperature;humidity
21149;DHT22;10732;51.472;6.466;2023-07-31T00:00:05;16.20;99.90
21149;DHT22;10732;51.472;6.466;2023-07-31T00:02:31;16.10;99.90
21149;DHT22;10732;51.472;6.466;2023-07-31T00:04:56;16.20;99.90
21149;DHT22;10732;51.472;6.466;2023-07-31T00:07:22;16.20;99.90
21149;DHT22;10732;51.472;6.466;2023-07-31T00:09:47;16.20;99.90
21149;DHT22;10732;51.472;6.466;2023-07-31T00:12:13;16.20;99.90
21149;DHT22;10732;51.472;6.466;2023-07-31T00:14:38;16.20;99.90
21149;DHT22;10732;51.472;6.466;2023-07-31T00:17:04;16.20;99.90
21149;DHT22;10732;51.472;6.466;2023-07-31T00:19:30;16.20;99.90
21149;DHT22;10732;51.472;6.466;2023-07-31T00:21:55;16.30;99.90
21149;DHT22;10732;51.472;6.466;2023-07-31T00:24:21;16.30;99.90
21149;DHT22;10732;51.472;6.466;2023-07-31T00:26:46;16.20;99.90
21149;DHT22;10732;51.472;6.466;2023-07-31T00:29:12;16.30;99.90
21149;DHT22;10732;51.472;6.466;2023-07-31T00:31:37;16.30;99.90
21149;DHT22;10732;51.472;6.466;2023-07-31T00:34:03;16.20;99.90
21149;DHT22;10732;51.472;6.466;2023-07-31T00:36:28;16.20;99.90
21149;DHT22;10732;51.472;6.466;2023-07-31T00:38:54;16.30;99.90
21149;DHT22;10732;51.472;6.466;2023-07-31T00:41:19;16.20;99.90
21149;DHT22;10732;51.472;6.466;2023-07-31T00:43:45;16.20;99.90
21149;DHT22;10732;51.472;6.466;2023-07-31T00:46:10;16.30;99.90
21149;DHT22;10732;51.472;6.466;2023-07-31T00:48:37;16.30;99.90
21149;DHT22;10732;51.472;6.466;2023-07-31T00:51:04;16.30;99.90
21149;DHT22;10732;51.472;6.466;2023-07-31T00:53:29;16.30;99.90
21149;DHT22;10732;51.472;6.466;2023-07-31T00:55:55;16.30;99.90
21149;DHT22;10732;51.472;6.466;2023-07-31T00:58:21;16.30;99.90
21149;DHT22;10732;51.472;6.466;2023-07-31T01:00:46;16.30;99.90
21149;DHT22;10732;51.472;6.466;2023-07-31T01:03:12;16.30;99.90
21149;DHT22;10732;51.472;6.466;2023-07-31T01:08:42;16.20;99.90
21149;DHT22;10732;51.472;6.466;2023-07-31T01:11:19;16.30;99.90
21149;DHT22;10732;51.472;6.466;2023-07-31T01:13:45;16.20;99.90
21149;DHT22;10732;51.472;6.466;2023-07-31T01:16:12;16.20;99.90
21149;DHT22;10732;51.472;6.466;2023-07-31T01:18:37;16.30;99.90
21149;DHT22;10732;51.472;6.466;2023-07-31T01:21:13;16.30;99.90
21149;DHT22;10732;51.472;6.466;2023-07-31T01:24:03;16.20;99.90
21149;DHT22;10732;51.472;6.466;2023-07-31T01:26:34;16.20;99.90
21149;DHT22;10732;51.472;6.466;2023-07-31T01:29:07;16.20;99.90
21149;DHT22;10732;51.472;6.466;2023-07-31T01:31:36;16.20;99.90
21149;DHT22;10732;51.472;6.466;2023-07-31T01:34:03;16.20;99.90
21149;DHT22;10732;51.472;6.466;2023-07-31T01:36:30;16.20;99.90
21149;DHT22;10732;51.472;6.466;2023-07-31T01:38:59;16.20;99.90
21149;DHT22;10732;51.472;6.466;2023-07-31T01:41:26;16.20;99.90
21149;DHT22;10732;51.472;6.466;2023-07-31T01:43:51;16.20;99.90
21149;DHT22;10732;51.472;6.466;2023-07-31T01:46:17;16.20;99.90
21149;DHT22;10732;51.472;6.466;2023-07-31T01:48:42;16.20;99.90
21149;DHT22;10732;51.472;6.466;2023-07-31T01:51:08;16.20;99.90
21149;DHT22;10732;51.472;6.466;2023-07-31T01:53:33;16.20;99.90
21149;DHT22;10732;51.472;6.466;2023-07-31T01:55:59;16.10;99.90
21149;DHT22;10732;51.472;6.466;2023-07-31T01:58:25;16.20;99.90
21149;DHT22;10732;51.472;6.466;2023-07-31T02:00:50;16.20;99.90
21149;DHT22;10732;51.472;6.466;2023-07-31T02:03:16;16.10;99.90
21149;DHT22;10732;51.472;6.466;2023-07-31T02:05:48;16.20;99.90
21149;DHT22;10732;51.472;6.466;2023-07-31T02:08:14;16.10;99.90
21149;DHT22;10732;51.472;6.466;2023-07-31T02:10:40;16.20;99.90
21149;DHT22;10732;51.472;6.466;2023-07-31T02:13:06;16.20;99.90
21149;DHT22;10732;51.472;6.466;2023-07-31T02:15:32;16.20;99.90
21149;DHT22;10732;51.472;6.466;2023-07-31T02:17:57;16.10;99.90
21149;DHT22;10732;51.472;6.466;2023-07-31T02:20:23;16.20;99.90
21149;DHT22;10732;51.472;6.466;2023-07-31T02:22:49;16.10;99.90
21149;DHT22;10732;51.472;6.466;2023-07-31T02:25:14;16.10;99.90
21149;DHT22;10732;51.472;6.466;2023-07-31T02:27:40;16.10;99.90
21149;DHT22;10732;51.472;6.466;2023-07-31T02:30:06;16.10;99.90
21149;DHT22;10732;51.472;6.466;2023-07-31T02:32:32;16.10;99.90
21149;DHT22;10732;51.472;6.466;2023-07-31T02:34:57;16.10;99.90
21149;DHT22;10732;51.472;6.466;2023-07-31T02:37:23;16.10;99.90
21149;DHT22;10732;51.472;6.466;2023-07-31T02:39:48;16.10;99.90
21149;DHT22;10732;51.472;6.466;2023-07-31T02:42:14;16.10;99.90
21149;DHT22;10732;51.472;6.466;2023-07-31T02:44:40;16.10;99.90
21149;DHT22;10732;51.472;6.466;2023-07-31T02:47:05;16.10;99.90
21149;DHT22;10732;51.472;6.466;2023-07-31T02:49:31;16.10;99.90
21149;DHT22;10732;51.472;6.466;2023-07-31T02:51:57;16.10;99.90
21149;DHT22;10732;51.472;6.466;2023-07-31T02:54:23;16.10;99.90
21149;DHT22;10732;51.472;6.466;2023-07-31T02:56:48;16.10;99.90
21149;DHT22;10732;51.472;6.466;2023-07-31T02:59:14;16.10;99.90
21149;DHT22;10732;51.472;6.466;2023-07-31T03:01:40;16.10;99.90
21149;DHT22;10732;51.472;6.466;2023-07-31T03:04:05;16.10;99.90
21149;DHT22;10732;51.472;6.466;2023-07-31T03:06:31;16.00;99.90
21149;DHT22;10732;51.472;6.466;2023-07-31T03:08:56;16.00;99.90
21149;DHT22;10732;51.472;6.466;2023-07-31T03:11:22;16.00;99.90
21149;DHT22;10732;51.472;6.466;2023-07-31T03:13:47;16.00;99.90
21149;DHT22;10732;51.472;6.466;2023-07-31T03:16:13;16.00;99.90
21149;DHT22;10732;51.472;6.466;2023-07-31T03:18:38;16.00;99.90
21149;DHT22;10732;51.472;6.466;2023-07-31T03:21:04;16.10;99.90
21149;DHT22;10732;51.472;6.466;2023-07-31T03:23:30;16.10;99.90
21149;DHT22;10732;51.472;6.466;2023-07-31T03:26:00;16.10;99.90
21149;DHT22;10732;51.472;6.466;2023-07-31T03:28:26;16.10;99.90
21149;DHT22;10732;51.472;6.466;2023-07-31T03:30:52;16.10;99.90
21149;DHT22;10732;51.472;6.466;2023-07-31T03:33:18;16.10;99.90
21149;DHT22;10732;51.472;6.466;2023-07-31T03:35:44;16.10;99.90
21149;DHT22;10732;51.472;6.466;2023-07-31T03:38:09;16.10;99.90
21149;DHT22;10732;51.472;6.466;2023-07-31T03:40:35;16.10;99.90
21149;DHT22;10732;51.472;6.466;2023-07-31T03:43:00;16.10;99.90
21149;DHT22;10732;51.472;6.466;2023-07-31T03:45:26;16.20;99.90
21149;DHT22;10732;51.472;6.466;2023-07-31T03:47:51;16.20;99.90
21149;DHT22;10732;51.472;6.466;2023-07-31T03:50:17;16.20;99.90
21149;DHT22;10732;51.472;6.466;2023-07-31T03:52:42;16.30;99.90
21149;DHT22;10732;51.472;6.466;2023-07-31T03:55:08;16.30;99.90
21149;DHT22;10732;51.472;6.466;2023-07-31T03:57:34;16.30;99.90
21149;DHT22;10732;51.472;6.466;2023-07-31T03:59:59;16.40;99.90
21149;DHT22;10732;51.472;6.466;2023-07-31T04:02:25;16.30;99.90
21149;DHT22;10732;51.472;6.466;2023-07-31T04:04:50;16.30;99.90
21149;DHT22;10732;51.472;6.466;2023-07-31T04:07:16;16.30;99.90
21149;DHT22;10732;51.472;6.466;2023-07-31T04:09:41;16.30;99.90
21149;DHT22;10732;51.472;6.466;2023-07-31T04:12:07;16.30;99.90
21149;DHT22;10732;51.472;6.466;2023-07-31T04:14:33;16.40;99.90
21149;DHT22;10732;51.472;6.466;2023-07-31T04:16:58;16.40;99.90
21149;DHT22;10732;51.472;6.466;2023-07-31T04:19:24;16.40;99.90
21149;DHT22;10732;51.472;6.466;2023-07-31T04:21:49;16.40;99.90
21149;DHT22;10732;51.472;6.466;2023-07-31T04:24:15;16.40;99.90
21149;DHT22;10732;51.472;6.466;2023-07-31T04:26:41;16.40;99.90
21149;DHT22;10732;51.472;6.466;2023-07-31T04:29:06;16.40;99.90
21149;DHT22;10732;51.472;6.466;2023-07-31T04:31:33;16.40;99.90
21149;DHT22;10732;51.472;6.466;2023-07-31T04:33:59;16.40;99.90
21149;DHT22;10732;51.472;6.466;2023-07-31T04:36:24;16.40;99.90
21149;DHT22;10732;51.472;6.466;2023-07-31T04:38:50;16.50;99.90
21149;DHT22;10732;51.472;6.466;2023-07-31T04:41:15;16.50;99.90
21149;DHT22;10732;51.472;6.466;2023-07-31T04:43:41;16.60;99.90
21149;DHT22;10732;51.472;6.466;2023-07-31T04:46:06;16.50;99.90
21149;DHT22;10732;51.472;6.466;2023-07-31T04:48:32;16.60;99.90
21149;DHT22;10732;51.472;6.466;2023-07-31T04:50:57;16.60;99.90
21149;DHT22;10732;51.472;6.466;2023-07-31T04:53:23;16.70;99.90
21149;DHT22;10732;51.472;6.466;2023-07-31T04:55:48;16.70;99.90
21149;DHT22;10732;51.472;6.466;2023-07-31T04:58:14;16.70;99.90
21149;DHT22;10732;51.472;6.466;2023-07-31T05:00:39;16.70;99.90
21149;DHT22;10732;51.472;6.466;2023-07-31T05:03:05;16.70;99.90
21149;DHT22;10732;51.472;6.466;2023-07-31T05:05:31;16.70;99.90
21149;DHT22;10732;51.472;6.466;2023-07-31T05:07:56;16.80;99.90
21149;DHT22;10732;51.472;6.466;2023-07-31T05:10:22;16.70;99.90
21149;DHT22;10732;51.472;6.466;2023-07-31T05:12:48;16.70;99.90
21149;DHT22;10732;51.472;6.466;2023-07-31T05:15:13;16.70;99.90
21149;DHT22;10732;51.472;6.466;2023-07-31T05:17:39;16.70;99.90
21149;DHT22;10732;51.472;6.466;2023-07-31T05:20:05;16.70;99.90
21149;DHT22;10732;51.472;6.466;2023-07-31T05:22:30;16.70;99.90
21149;DHT22;10732;51.472;6.466;2023-07-31T05:24:56;16.70;99.90
21149;DHT22;10732;51.472;6.466;2023-07-31T05:27:21;16.80;99.90
21149;DHT22;10732;51.472;6.466;2023-07-31T05:29:47;16.80;99.90
21149;DHT22;10732;51.472;6.466;2023-07-31T05:32:12;16.80;99.90
21149;DHT22;10732;51.472;6.466;2023-07-31T05:34:38;16.80;99.90
21149;DHT22;10732;51.472;6.466;2023-07-31T05:37:04;16.90;99.90
21149;DHT22;10732;51.472;6.466;2023-07-31T05:39:30;16.90;99.90
21149;DHT22;10732;51.472;6.466;2023-07-31T05:41:55;16.90;99.90
21149;DHT22;10732;51.472;6.466;2023-07-31T05:44:21;16.90;99.90
21149;DHT22;10732;51.472;6.466;2023-07-31T05:46:46;16.90;99.90
21149;DHT22;10732;51.472;6.466;2023-07-31T05:49:12;16.90;99.90
21149;DHT22;10732;51.472;6.466;2023-07-31T05:51:38;16.90;99.90
21149;DHT22;10732;51.472;6.466;2023-07-31T05:54:03;16.90;99.90
21149;DHT22;10732;51.472;6.466;2023-07-31T05:56:29;16.90;99.90
21149;DHT22;10732;51.472;6.466;2023-07-31T05:58:54;16.90;99.90
21149;DHT22;10732;51.472;6.466;2023-07-31T06:01:20;16.90;99.90
21149;DHT22;10732;51.472;6.466;2023-07-31T06:03:46;16.90;99.90
21149;DHT22;10732;51.472;6.466;2023-07-31T06:06:12;16.90;99.90
21149;DHT22;10732;51.472;6.466;2023-07-31T06:08:38;16.90;99.90
21149;DHT22;10732;51.472;6.466;2023-07-31T06:11:05;16.90;99.90
21149;DHT22;10732;51.472;6.466;2023-07-31T06:13:31;16.90;99.90
21149;DHT22;10732;51.472;6.466;2023-07-31T06:15:56;16.80;99.90
21149;DHT22;10732;51.472;6.466;2023-07-31T06:18:22;16.80;99.90
21149;DHT22;10732;51.472;6.466;2023-07-31T06:20:47;16.80;99.90
21149;DHT22;10732;51.472;6.466;2023-07-31T06:23:18;16.80;99.90
21149;DHT22;10732;51.472;6.466;2023-07-31T06:25:44;16.80;99.90
21149;DHT22;10732;51.472;6.466;2023-07-31T06:28:09;16.80;99.90
21149;DHT22;10732;51.472;6.466;2023-07-31T06:30:35;16.70;99.90
21149;DHT22;10732;51.472;6.466;2023-07-31T06:33:00;16.80;99.90
21149;DHT22;10732;51.472;6.466;2023-07-31T06:35:26;16.90;99.90
21149;DHT22;10732;51.472;6.466;2023-07-31T06:37:51;16.90;99.90
21149;DHT22;10732;51.472;6.466;2023-07-31T06:40:17;16.80;99.90
21149;DHT22;10732;51.472;6.466;2023-07-31T06:42:43;16.80;99.90
21149;DHT22;10732;51.472;6.466;2023-07-31T06:45:08;16.80;99.90
21149;DHT22;10732;51.472;6.466;2023-07-31T06:47:34;16.80;99.90
21149;DHT22;10732;51.472;6.466;2023-07-31T06:50:00;16.70;99.90
21149;DHT22;10732;51.472;6.466;2023-07-31T06:52:25;16.80;99.90
21149;DHT22;10732;51.472;6.466;2023-07-31T06:55:16;16.70;99.90
21149;DHT22;10732;51.472;6.466;2023-07-31T06:57:45;16.70;99.90
21149;DHT22;10732;51.472;6.466;2023-07-31T07:00:11;16.70;99.90
21149;DHT22;10732;51.472;6.466;2023-07-31T07:02:37;16.60;99.90
21149;DHT22;10732;51.472;6.466;2023-07-31T07:05:02;16.60;99.90
21149;DHT22;10732;51.472;6.466;2023-07-31T07:07:28;16.60;99.90
21149;DHT22;10732;51.472;6.466;2023-07-31T07:09:54;16.60;99.90
21149;DHT22;10732;51.472;6.466;2023-07-31T07:12:19;16.60;99.90
21149;DHT22;10732;51.472;6.466;2023-07-31T07:14:45;16.60;99.90
21149;DHT22;10732;51.472;6.466;2023-07-31T07:17:13;16.50;99.90
21149;DHT22;10732;51.472;6.466;2023-07-31T07:19:40;16.50;99.90
21149;DHT22;10732;51.472;6.466;2023-07-31T07:22:07;16.50;99.90
21149;DHT22;10732;51.472;6.466;2023-07-31T07:24:32;16.50;99.90
21149;DHT22;10732;51.472;6.466;2023-07-31T07:26:58;16.60;99.90
21149;DHT22;10732;51.472;6.466;2023-07-31T07:29:23;16.60;99.90
21149;DHT22;10732;51.472;6.466;2023-07-31T07:31:49;16.60;99.90
21149;DHT22;10732;51.472;6.466;2023-07-31T07:34:15;16.50;99.90
21149;DHT22;10732;51.472;6.466;2023-07-31T07:36:40;16.50;99.90
21149;DHT22;10732;51.472;6.466;2023-07-31T07:39:06;16.40;99.90
21149;DHT22;10732;51.472;6.466;2023-07-31T07:41:32;16.40;99.90
21149;DHT22;10732;51.472;6.466;2023-07-31T07:43:57;16.30;99.90
21149;DHT22;10732;51.472;6.466;2023-07-31T07:46:23;16.30;99.90
21149;DHT22;10732;51.472;6.466;2023-07-31T07:48:49;16.20;99.90
21149;DHT22;10732;51.472;6.466;2023-07-31T07:51:14;16.20;99.90
21149;DHT22;10732;51.472;6.466;2023-07-31T07:53:40;16.10;99.90
21149;DHT22;10732;51.472;6.466;2023-07-31T07:56:05;16.20;99.90
21149;DHT22;10732;51.472;6.466;2023-07-31T07:58:31;16.10;99.90
21149;DHT22;10732;51.472;6.466;2023-07-31T08:00:56;16.00;99.90
21149;DHT22;10732;51.472;6.466;2023-07-31T08:03:22;16.10;99.90
21149;DHT22;10732;51.472;6.466;2023-07-31T08:05:47;16.20;99.90
21149;DHT22;10732;51.472;6.466;2023-07-31T08:08:16;16.30;99.90
21149;DHT22;10732;51.472;6.466;2023-07-31T08:10:42;16.40;99.90
21149;DHT22;10732;51.472;6.466;2023-07-31T08:13:09;16.50;99.90
21149;DHT22;10732;51.472;6.466;2023-07-31T08:15:34;16.40;99.90
21149;DHT22;10732;51.472;6.466;2023-07-31T08:18:00;16.40;99.90
21149;DHT22;10732;51.472;6.466;2023-07-31T08:20:26;16.40;99.90
21149;DHT22;10732;51.472;6.466;2023-07-31T08:22:52;16.50;99.90
21149;DHT22;10732;51.472;6.466;2023-07-31T08:25:18;16.50;99.90
21149;DHT22;10732;51.472;6.466;2023-07-31T08:27:44;16.70;99.90
21149;DHT22;10732;51.472;6.466;2023-07-31T08:30:12;16.70;99.90
21149;DHT22;10732;51.472;6.466;2023-07-31T08:32:37;16.80;99.90
21149;DHT22;10732;51.472;6.466;2023-07-31T08:35:03;16.80;99.90
21149;DHT22;10732;51.472;6.466;2023-07-31T08:37:29;16.80;99.90
21149;DHT22;10732;51.472;6.466;2023-07-31T08:39:54;16.60;99.90
21149;DHT22;10732;51.472;6.466;2023-07-31T08:42:20;16.70;99.90
21149;DHT22;10732;51.472;6.466;2023-07-31T08:44:46;16.70;99.90
21149;DHT22;10732;51.472;6.466;2023-07-31T08:47:12;16.70;99.90
21149;DHT22;10732;51.472;6.466;2023-07-31T08:49:39;16.70;99.90
21149;DHT22;10732;51.472;6.466;2023-07-31T08:52:06;16.70;99.90
21149;DHT22;10732;51.472;6.466;2023-07-31T08:54:32;16.70;99.90
21149;DHT22;10732;51.472;6.466;2023-07-31T08:56:58;16.50;99.90
21149;DHT22;10732;51.472;6.466;2023-07-31T08:59:30;16.60;99.90
21149;DHT22;10732;51.472;6.466;2023-07-31T09:01:58;16.60;99.90
21149;DHT22;10732;51.472;6.466;2023-07-31T09:04:27;16.80;99.90
21149;DHT22;10732;51.472;6.466;2023-07-31T09:06:57;16.90;99.90
21149;DHT22;10732;51.472;6.466;2023-07-31T09:09:25;17.00;99.90
21149;DHT22;10732;51.472;6.466;2023-07-31T09:11:51;17.20;99.90
21149;DHT22;10732;51.472;6.466;2023-07-31T09:14:17;17.40;99.90
21149;DHT22;10732;51.472;6.466;2023-07-31T09:16:57;17.40;99.90
21149;DHT22;10732;51.472;6.466;2023-07-31T09:19:29;17.50;99.90
21149;DHT22;10732;51.472;6.466;2023-07-31T09:21:55;17.50;99.90
21149;DHT22;10732;51.472;6.466;2023-07-31T09:24:28;17.50;99.90
21149;DHT22;10732;51.472;6.466;2023-07-31T09:26:54;17.20;99.90
21149;DHT22;10732;51.472;6.466;2023-07-31T09:29:21;17.30;99.90
21149;DHT22;10732;51.472;6.466;2023-07-31T09:31:47;17.30;99.90
21149;DHT22;10732;51.472;6.466;2023-07-31T09:34:13;17.50;99.90
21149;DHT22;10732;51.472;6.466;2023-07-31T09:36:43;17.50;99.90
21149;DHT22;10732;51.472;6.466;2023-07-31T09:39:10;17.50;99.90
21149;DHT22;10732;51.472;6.466;2023-07-31T09:41:38;17.50;99.90
21149;DHT22;10732;51.472;6.466;2023-07-31T09:44:04;17.50;99.90
21149;DHT22;10732;51.472;6.466;2023-07-31T09:46:30;17.60;99.90
21149;DHT22;10732;51.472;6.466;2023-07-31T09:49:25;17.60;99.90
21149;DHT22;10732;51.472;6.466;2023-07-31T09:51:50;17.50;99.90
21149;DHT22;10732;51.472;6.466;2023-07-31T09:54:16;17.50;99.90
21149;DHT22;10732;51.472;6.466;2023-07-31T09:56:44;17.40;99.90
21149;DHT22;10732;51.472;6.466;2023-07-31T09:59:15;17.50;99.90
21149;DHT22;10732;51.472;6.466;2023-07-31T10:01:41;17.80;99.90
21149;DHT22;10732;51.472;6.466;2023-07-31T10:04:09;17.80;99.90
21149;DHT22;10732;51.472;6.466;2023-07-31T10:06:36;17.60;99.90
21149;DHT22;10732;51.472;6.466;2023-07-31T10:09:03;17.60;99.90
21149;DHT22;10732;51.472;6.466;2023-07-31T10:11:37;17.70;99.90
21149;DHT22;10732;51.472;6.466;2023-07-31T10:14:04;17.60;99.90
21149;DHT22;10732;51.472;6.466;2023-07-31T10:16:31;17.90;99.90
21149;DHT22;10732;51.472;6.466;2023-07-31T10:18:57;18.00;99.90
21149;DHT22;10732;51.472;6.466;2023-07-31T10:21:23;18.10;99.90
21149;DHT22;10732;51.472;6.466;2023-07-31T10:23:49;18.00;99.90
21149;DHT22;10732;51.472;6.466;2023-07-31T10:26:17;18.20;99.90
21149;DHT22;10732;51.472;6.466;2023-07-31T10:28:44;18.40;99.90
21149;DHT22;10732;51.472;6.466;2023-07-31T10:31:11;18.50;99.90
21149;DHT22;10732;51.472;6.466;2023-07-31T10:33:37;18.70;99.90
21149;DHT22;10732;51.472;6.466;2023-07-31T10:36:13;18.60;99.90
21149;DHT22;10732;51.472;6.466;2023-07-31T10:38:40;18.60;99.90
21149;DHT22;10732;51.472;6.466;2023-07-31T10:41:09;18.20;99.90
21149;DHT22;10732;51.472;6.466;2023-07-31T10:43:39;18.10;99.90
21149;DHT22;10732;51.472;6.466;2023-07-31T10:46:09;18.30;99.90
21149;DHT22;10732;51.472;6.466;2023-07-31T10:48:37;18.40;99.90
21149;DHT22;10732;51.472;6.466;2023-07-31T10:51:08;18.20;99.90
21149;DHT22;10732;51.472;6.466;2023-07-31T10:53:35;18.20;99.90
21149;DHT22;10732;51.472;6.466;2023-07-31T10:56:08;18.30;99.90
21149;DHT22;10732;51.472;6.466;2023-07-31T10:58:36;18.30;99.90
21149;DHT22;10732;51.472;6.466;2023-07-31T11:01:04;18.30;99.90
21149;DHT22;10732;51.472;6.466;2023-07-31T11:03:49;18.40;99.90
21149;DHT22;10732;51.472;6.466;2023-07-31T11:06:18;18.50;99.90
21149;DHT22;10732;51.472;6.466;2023-07-31T11:08:46;18.40;99.90
21149;DHT22;10732;51.472;6.466;2023-07-31T11:11:17;18.40;99.90
21149;DHT22;10732;51.472;6.466;2023-07-31T11:13:45;18.40;99.90
21149;DHT22;10732;51.472;6.466;2023-07-31T11:16:12;18.30;99.90
21149;DHT22;10732;51.472;6.466;2023-07-31T11:18:42;18.30;99.90
21149;DHT22;10732;51.472;6.466;2023-07-31T11:21:12;18.30;99.90
21149;DHT22;10732;51.472;6.466;2023-07-31T11:23:38;18.20;99.90
21149;DHT22;10732;51.472;6.466;2023-07-31T11:26:05;18.20;99.90
21149;DHT22;10732;51.472;6.466;2023-07-31T11:28:34;18.30;99.90
21149;DHT22;10732;51.472;6.466;2023-07-31T11:31:01;18.30;99.90
21149;DHT22;10732;51.472;6.466;2023-07-31T11:33:27;18.30;99.90
21149;DHT22;10732;51.472;6.466;2023-07-31T11:35:52;18.20;99.90
21149;DHT22;10732;51.472;6.466;2023-07-31T11:38:29;18.20;99.90
21149;DHT22;10732;51.472;6.466;2023-07-31T11:40:56;18.30;99.90
21149;DHT22;10732;51.472;6.466;2023-07-31T11:43:22;18.30;99.90
21149;DHT22;10732;51.472;6.466;2023-07-31T11:45:53;18.30;99.90
21149;DHT22;10732;51.472;6.466;2023-07-31T11:48:33;18.40;99.90
21149;DHT22;10732;51.472;6.466;2023-07-31T11:51:01;18.30;99.90
21149;DHT22;10732;51.472;6.466;2023-07-31T11:53:39;18.20;99.90
21149;DHT22;10732;51.472;6.466;2023-07-31T11:56:10;18.10;99.90
21149;DHT22;10732;51.472;6.466;2023-07-31T11:58:37;18.10;99.90
21149;DHT22;10732;51.472;6.466;2023-07-31T12:01:04;18.20;99.90
21149;DHT22;10732;51.472;6.466;2023-07-31T12:03:31;18.20;99.90
21149;DHT22;10732;51.472;6.466;2023-07-31T12:05:58;18.30;99.90
21149;DHT22;10732;51.472;6.466;2023-07-31T12:08:24;18.30;99.90
21149;DHT22;10732;51.472;6.466;2023-07-31T12:10:54;18.60;99.90
21149;DHT22;10732;51.472;6.466;2023-07-31T12:13:26;18.60;99.90
21149;DHT22;10732;51.472;6.466;2023-07-31T12:15:56;18.50;99.90
21149;DHT22;10732;51.472;6.466;2023-07-31T12:18:27;18.60;99.90
21149;DHT22;10732;51.472;6.466;2023-07-31T12:20:58;18.60;99.90
21149;DHT22;10732;51.472;6.466;2023-07-31T12:23:26;18.60;99.90
21149;DHT22;10732;51.472;6.466;2023-07-31T12:28:44;19.00;99.90
21149;DHT22;10732;51.472;6.466;2023-07-31T12:31:12;19.20;99.90
21149;DHT22;10732;51.472;6.466;2023-07-31T12:33:39;19.00;99.90
21149;DHT22;10732;51.472;6.466;2023-07-31T12:36:11;19.00;99.90
21149;DHT22;10732;51.472;6.466;2023-07-31T12:38:38;18.80;99.90
21149;DHT22;10732;51.472;6.466;2023-07-31T12:41:03;18.90;99.90
21149;DHT22;10732;51.472;6.466;2023-07-31T12:43:29;18.70;99.90
21149;DHT22;10732;51.472;6.466;2023-07-31T12:45:55;18.70;99.90
21149;DHT22;10732;51.472;6.466;2023-07-31T12:48:22;18.70;99.90
21149;DHT22;10732;51.472;6.466;2023-07-31T12:50:47;18.60;99.90
21149;DHT22;10732;51.472;6.466;2023-07-31T12:53:14;18.60;99.90
21149;DHT22;10732;51.472;6.466;2023-07-31T12:55:40;18.70;99.90
21149;DHT22;10732;51.472;6.466;2023-07-31T12:58:05;18.90;99.90
21149;DHT22;10732;51.472;6.466;2023-07-31T13:00:31;18.90;99.90
21149;DHT22;10732;51.472;6.466;2023-07-31T13:02:56;18.80;99.90
21149;DHT22;10732;51.472;6.466;2023-07-31T13:05:22;18.90;99.90
21149;DHT22;10732;51.472;6.466;2023-07-31T13:07:48;18.80;99.90
21149;DHT22;10732;51.472;6.466;2023-07-31T13:10:13;18.70;99.90
21149;DHT22;10732;51.472;6.466;2023-07-31T13:12:39;18.80;99.90
21149;DHT22;10732;51.472;6.466;2023-07-31T13:15:06;18.80;99.90
21149;DHT22;10732;51.472;6.466;2023-07-31T13:17:32;18.90;99.90
21149;DHT22;10732;51.472;6.466;2023-07-31T13:19:57;18.80;99.90
21149;DHT22;10732;51.472;6.466;2023-07-31T13:22:23;18.90;99.90
21149;DHT22;10732;51.472;6.466;2023-07-31T13:24:48;18.90;99.90
21149;DHT22;10732;51.472;6.466;2023-07-31T13:27:14;18.90;99.90
21149;DHT22;10732;51.472;6.466;2023-07-31T13:29:46;18.90;99.90
21149;DHT22;10732;51.472;6.466;2023-07-31T13:32:11;18.90;99.90
21149;DHT22;10732;51.472;6.466;2023-07-31T13:34:37;19.00;99.90
21149;DHT22;10732;51.472;6.466;2023-07-31T13:37:03;19.00;99.90
21149;DHT22;10732;51.472;6.466;2023-07-31T13:39:28;18.90;99.90
21149;DHT22;10732;51.472;6.466;2023-07-31T13:41:54;18.90;99.90
21149;DHT22;10732;51.472;6.466;2023-07-31T13:44:20;18.90;99.90
21149;DHT22;10732;51.472;6.466;2023-07-31T13:46:45;18.90;99.90
21149;DHT22;10732;51.472;6.466;2023-07-31T13:49:11;19.10;99.90
21149;DHT22;10732;51.472;6.466;2023-07-31T13:51:36;19.20;99.90
21149;DHT22;10732;51.472;6.466;2023-07-31T13:54:04;19.60;99.90
21149;DHT22;10732;51.472;6.466;2023-07-31T13:56:30;19.90;99.90
21149;DHT22;10732;51.472;6.466;2023-07-31T13:58:55;19.90;99.90
21149;DHT22;10732;51.472;6.466;2023-07-31T14:01:21;19.90;99.90
21149;DHT22;10732;51.472;6.466;2023-07-31T14:03:46;20.00;99.90
21149;DHT22;10732;51.472;6.466;2023-07-31T14:06:12;19.90;99.90
21149;DHT22;10732;51.472;6.466;2023-07-31T14:08:37;19.70;99.90
21149;DHT22;10732;51.472;6.466;2023-07-31T14:11:03;19.50;99.90
21149;DHT22;10732;51.472;6.466;2023-07-31T14:13:28;19.40;99.90
21149;DHT22;10732;51.472;6.466;2023-07-31T14:15:54;19.40;99.90
21149;DHT22;10732;51.472;6.466;2023-07-31T14:18:19;19.30;99.90
21149;DHT22;10732;51.472;6.466;2023-07-31T14:20:45;19.20;99.90
21149;DHT22;10732;51.472;6.466;2023-07-31T14:23:11;19.10;99.90
21149;DHT22;10732;51.472;6.466;2023-07-31T14:25:36;19.10;99.90
21149;DHT22;10732;51.472;6.466;2023-07-31T14:28:02;19.00;99.90
21149;DHT22;10732;51.472;6.466;2023-07-31T14:30:27;18.90;99.90
21149;DHT22;10732;51.472;6.466;2023-07-31T14:32:53;18.80;99.90
21149;DHT22;10732;51.472;6.466;2023-07-31T14:35:18;18.70;99.90
21149;DHT22;10732;51.472;6.466;2023-07-31T14:37:45;18.50;99.90
21149;DHT22;10732;51.472;6.466;2023-07-31T14:40:12;18.50;99.90
21149;DHT22;10732;51.472;6.466;2023-07-31T14:42:38;18.30;99.90
21149;DHT22;10732;51.472;6.466;2023-07-31T14:45:05;18.30;99.90
21149;DHT22;10732;51.472;6.466;2023-07-31T14:47:31;18.30;99.90
21149;DHT22;10732;51.472;6.466;2023-07-31T14:49:57;18.20;99.90
21149;DHT22;10732;51.472;6.466;2023-07-31T14:52:23;18.30;99.90
21149;DHT22;10732;51.472;6.466;2023-07-31T14:54:49;18.30;99.90
21149;DHT22;10732;51.472;6.466;2023-07-31T14:57:14;18.40;99.90
21149;DHT22;10732;51.472;6.466;2023-07-31T14:59:40;18.50;99.90
21149;DHT22;10732;51.472;6.466;2023-07-31T15:02:06;18.60;99.90
21149;DHT22;10732;51.472;6.466;2023-07-31T15:04:33;18.50;99.90
21149;DHT22;10732;51.472;6.466;2023-07-31T15:06:59;18.60;99.90
21149;DHT22;10732;51.472;6.466;2023-07-31T15:09:24;18.70;99.90
21149;DHT22;10732;51.472;6.466;2023-07-31T15:11:50;18.60;99.90
21149;DHT22;10732;51.472;6.466;2023-07-31T15:14:15;18.50;99.90
21149;DHT22;10732;51.472;6.466;2023-07-31T15:16:41;18.40;99.90
21149;DHT22;10732;51.472;6.466;2023-07-31T15:19:06;18.40;99.90
21149;DHT22;10732;51.472;6.466;2023-07-31T15:21:32;18.40;99.90
21149;DHT22;10732;51.472;6.466;2023-07-31T15:23:58;18.40;99.90
21149;DHT22;10732;51.472;6.466;2023-07-31T15:26:23;18.40;99.90
21149;DHT22;10732;51.472;6.466;2023-07-31T15:28:55;18.50;99.90
21149;DHT22;10732;51.472;6.466;2023-07-31T15:31:21;18.60;99.90